METAR Data
IDs: Format: Raw Decoded Include TAF

Data at: 0331 UTC 25 Jan 2020

METAR for:KSHL (Sheldon Muni, IA, US)
Text:KSHL 250315Z AUTO 32006KT 9SM OVC022 M03/M03 A3001 RMK AO2
Temperature: -3.0°C ( 27°F)
Dewpoint: -3.0°C ( 27°F) [RH = 100%]
Pressure (altimeter):30.01 inches Hg (1016.3 mb)
Winds:from the NW (320 degrees) at 7 MPH (6 knots; 3.1 m/s)
Visibility: 9 sm ( 14 km)
Ceiling:2200 feet AGL
Clouds: overcast cloud deck at 2200 feet AGL
QC Flag:automated observation with no human augmentation